Time;durP1;ratioP1;P1;durP2;ratioP2;P2;SDS_P1;SDS_P2;PMS_P1;PMS_P2;Temp;Humidity;BMP_temperature;BMP_pressure;BME280_temperature;BME280_humidity;BME280_pressure;Samples;Min_cycle;Max_cycle;Signal;HPM_P1;HPM_P2
2023/09/15 00:01:34;;;;;;;3.92;1.95;;;11.70;99.90;;;;;;5157127;27;20070;-78
2023/09/15 00:04:03;;;;;;;4.55;1.98;;;11.60;99.90;;;;;;5157017;27;20053;-78
2023/09/15 00:06:29;;;;;;;3.85;1.95;;;11.60;99.90;;;;;;5155141;27;20046;-78
2023/09/15 00:08:55;;;;;;;3.80;1.80;;;11.60;99.90;;;;;;5136734;27;20092;-77
2023/09/15 00:11:22;;;;;;;6.10;2.20;;;11.60;99.90;;;;;;5155478;27;20387;-78
2023/09/15 00:13:48;;;;;;;5.70;2.25;;;11.50;99.90;;;;;;5154779;27;20474;-77
2023/09/15 00:16:14;;;;;;;3.30;1.83;;;11.50;99.90;;;;;;5154744;27;20101;-78
2023/09/15 00:18:41;;;;;;;3.88;2.10;;;11.50;99.90;;;;;;5154802;27;20063;-78
2023/09/15 00:21:09;;;;;;;3.58;1.98;;;11.40;99.90;;;;;;5154872;27;20054;-78
2023/09/15 00:23:37;;;;;;;2.70;1.80;;;11.40;99.90;;;;;;5138235;27;20087;-78
2023/09/15 00:26:03;;;;;;;4.28;1.98;;;11.40;99.90;;;;;;5140305;27;20054;-78
2023/09/15 00:28:29;;;;;;;4.70;2.10;;;11.40;99.90;;;;;;5140711;27;20057;-78
2023/09/15 00:30:58;;;;;;;3.70;1.90;;;11.30;99.90;;;;;;5145162;27;20407;-78
2023/09/15 00:33:24;;;;;;;3.13;2.03;;;11.30;99.90;;;;;;5138163;27;20035;-78
2023/09/15 00:35:49;;;;;;;3.20;1.92;;;11.20;99.90;;;;;;5137909;27;20042;-78
2023/09/15 00:38:15;;;;;;;4.15;1.85;;;11.20;99.90;;;;;;5146669;27;20042;-78
2023/09/15 00:40:41;;;;;;;4.55;2.00;;;11.10;99.90;;;;;;5140236;27;20134;-77
2023/09/15 00:43:06;;;;;;;3.97;2.50;;;11.00;99.90;;;;;;5158504;27;20439;-78
2023/09/15 00:45:32;;;;;;;4.93;2.30;;;11.00;99.90;;;;;;5140017;27;20046;-78
2023/09/15 00:47:58;;;;;;;3.08;2.13;;;10.90;99.90;;;;;;5158428;27;20050;-78
2023/09/15 00:50:26;;;;;;;3.88;1.88;;;10.90;99.90;;;;;;5158627;27;20045;-78
2023/09/15 00:52:57;;;;;;;3.83;2.20;;;10.80;99.90;;;;;;5158293;27;20047;-77
2023/09/15 00:55:24;;;;;;;3.40;2.13;;;10.70;99.90;;;;;;5140420;27;20502;-78
2023/09/15 00:57:51;;;;;;;5.43;2.13;;;10.70;99.90;;;;;;5158526;27;20057;-78
2023/09/15 01:00:20;;;;;;;3.95;2.10;;;10.70;99.90;;;;;;5140025;27;20089;-78
2023/09/15 01:02:47;;;;;;;3.65;2.20;;;10.60;99.90;;;;;;5158250;27;20058;-77
2023/09/15 01:05:19;;;;;;;4.50;2.20;;;10.70;99.90;;;;;;5139924;27;20091;-77
2023/09/15 01:07:53;;;;;;;4.85;2.50;;;10.60;99.90;;;;;;5158254;27;20085;-77
2023/09/15 01:10:19;;;;;;;4.00;2.15;;;10.60;99.90;;;;;;5140034;27;20475;-77
2023/09/15 01:12:49;;;;;;;3.40;2.03;;;10.60;99.90;;;;;;5139613;27;20047;-77
2023/09/15 01:15:17;;;;;;;4.15;2.15;;;10.60;99.90;;;;;;5139766;27;20043;-77
2023/09/15 01:17:52;;;;;;;3.15;1.83;;;10.60;99.90;;;;;;5139110;27;20058;-77
2023/09/15 01:20:55;;;;;;;4.43;2.83;;;10.70;99.90;;;;;;5158010;27;20043;-78
2023/09/15 01:23:39;;;;;;;3.55;2.20;;;10.60;99.90;;;;;;5104560;27;20054;-77
2023/09/15 01:26:32;;;;;;;4.43;2.45;;;10.60;99.90;;;;;;5157745;27;20038;-79
2023/09/15 01:29:37;;;;;;;3.45;2.13;;;10.60;99.90;;;;;;5157753;27;20051;-77
2023/09/15 01:32:07;;;;;;;3.65;2.10;;;10.50;99.90;;;;;;5119072;27;20039;-78
2023/09/15 01:34:37;;;;;;;4.00;2.13;;;10.60;99.90;;;;;;5136980;27;20099;-78
2023/09/15 01:37:04;;;;;;;4.63;2.00;;;10.60;99.90;;;;;;5137039;27;20039;-78
2023/09/15 01:39:30;;;;;;;4.63;2.40;;;10.60;99.90;;;;;;5156599;27;20043;-78
2023/09/15 01:41:58;;;;;;;4.45;2.15;;;10.60;99.90;;;;;;5157505;27;20043;-78
2023/09/15 01:44:24;;;;;;;4.90;2.10;;;10.60;99.90;;;;;;5157505;27;20042;-77
2023/09/15 01:46:49;;;;;;;2.83;1.95;;;10.60;99.90;;;;;;5157871;27;20061;-78
2023/09/15 01:49:17;;;;;;;4.30;2.00;;;10.60;99.90;;;;;;5157511;27;20363;-77
2023/09/15 01:51:43;;;;;;;4.82;2.20;;;10.60;99.90;;;;;;5157169;27;20513;-79
2023/09/15 01:54:09;;;;;;;2.85;1.83;;;10.60;99.90;;;;;;5156651;27;20043;-78
2023/09/15 01:56:35;;;;;;;3.15;2.00;;;10.60;99.90;;;;;;5156892;27;20039;-78
2023/09/15 01:59:00;;;;;;;3.88;2.05;;;10.60;99.90;;;;;;5157273;27;20077;-78
2023/09/15 02:01:26;;;;;;;4.00;3.05;;;10.60;99.90;;;;;;5157374;27;20182;-78
2023/09/15 02:03:52;;;;;;;4.22;2.45;;;10.60;99.90;;;;;;5157326;27;20046;-78
2023/09/15 02:06:18;;;;;;;3.30;1.90;;;10.50;99.90;;;;;;5157301;27;20119;-78
2023/09/15 02:08:47;;;;;;;4.72;2.08;;;10.40;99.90;;;;;;5157332;27;20043;-77
2023/09/15 02:11:12;;;;;;;3.25;1.95;;;10.30;99.90;;;;;;5138778;27;20491;-78
2023/09/15 02:13:40;;;;;;;3.33;1.85;;;10.30;99.90;;;;;;5157031;27;20076;-78
2023/09/15 02:16:05;;;;;;;3.67;2.10;;;10.20;99.90;;;;;;5156425;27;20137;-79
2023/09/15 02:18:31;;;;;;;4.65;2.38;;;10.10;99.90;;;;;;5156771;27;20134;-78
2023/09/15 02:20:57;;;;;;;4.63;2.28;;;10.10;99.90;;;;;;5156700;27;20054;-78
2023/09/15 02:23:24;;;;;;;4.35;2.10;;;10.10;99.90;;;;;;5137962;27;20043;-78
2023/09/15 02:25:50;;;;;;;4.38;2.13;;;10.00;99.90;;;;;;5156651;27;20045;-78
2023/09/15 02:28:16;;;;;;;5.43;2.53;;;10.00;99.90;;;;;;5156854;27;20046;-78
2023/09/15 02:30:42;;;;;;;6.13;2.20;;;9.90;99.90;;;;;;5127183;27;20518;-78
2023/09/15 02:33:07;;;;;;;4.03;2.17;;;9.90;99.90;;;;;;5135458;27;20082;-78
2023/09/15 02:35:34;;;;;;;4.90;2.13;;;9.90;99.90;;;;;;5135325;27;20074;-78
2023/09/15 02:37:59;;;;;;;3.13;2.30;;;9.80;99.90;;;;;;5142622;27;20046;-78
2023/09/15 02:40:25;;;;;;;4.28;2.88;;;9.80;99.90;;;;;;5156515;27;20421;-78
2023/09/15 02:42:51;;;;;;;3.50;2.33;;;9.80;99.90;;;;;;5156633;27;20046;-78
2023/09/15 02:45:17;;;;;;;4.05;2.47;;;9.70;99.90;;;;;;5155973;27;20043;-78
2023/09/15 02:47:43;;;;;;;3.45;1.90;;;9.80;99.90;;;;;;5156026;27;20058;-78
2023/09/15 02:50:08;;;;;;;2.60;2.03;;;9.70;99.90;;;;;;5156292;27;20051;-78
2023/09/15 02:52:35;;;;;;;3.83;2.28;;;9.70;99.90;;;;;;5156294;27;20042;-77
2023/09/15 02:55:08;;;;;;;2.90;1.95;;;9.70;99.90;;;;;;5156149;27;20082;-78
2023/09/15 02:57:34;;;;;;;3.58;2.13;;;9.70;99.90;;;;;;5156317;27;20405;-78
2023/09/15 03:00:00;;;;;;;4.30;2.30;;;9.70;99.90;;;;;;5156198;27;20043;-78
2023/09/15 03:02:25;;;;;;;4.47;2.58;;;9.60;99.90;;;;;;5156257;27;20045;-78
2023/09/15 03:04:51;;;;;;;5.78;2.22;;;9.70;99.90;;;;;;5156046;27;20481;-78
2023/09/15 03:07:17;;;;;;;3.53;2.65;;;9.70;99.90;;;;;;5137486;27;20046;-78
2023/09/15 03:09:43;;;;;;;4.82;2.78;;;9.70;99.90;;;;;;5155660;27;20081;-78
2023/09/15 03:12:09;;;;;;;4.13;2.65;;;9.70;99.90;;;;;;5137319;27;20045;-78
2023/09/15 03:14:35;;;;;;;4.47;2.30;;;9.70;99.90;;;;;;5155796;27;20042;-78
2023/09/15 03:17:00;;;;;;;3.15;2.30;;;9.70;99.90;;;;;;5155584;27;20059;-77
2023/09/15 03:19:26;;;;;;;4.47;2.33;;;9.70;99.90;;;;;;5155541;27;20406;-78
2023/09/15 03:21:53;;;;;;;5.40;2.60;;;9.60;99.90;;;;;;5156082;27;20502;-77
2023/09/15 03:24:19;;;;;;;4.28;2.50;;;9.60;99.90;;;;;;5136860;27;20098;-77
2023/09/15 03:26:45;;;;;;;4.18;2.60;;;9.70;99.90;;;;;;5155447;27;20117;-77
2023/09/15 03:29:11;;;;;;;4.97;2.20;;;9.60;99.90;;;;;;5155533;27;20049;-77
2023/09/15 03:31:36;;;;;;;4.30;2.60;;;9.60;99.90;;;;;;5117918;27;20554;-77
2023/09/15 03:34:03;;;;;;;3.65;2.00;;;9.60;99.90;;;;;;5134834;27;20172;-78
2023/09/15 03:36:29;;;;;;;3.90;2.25;;;9.50;99.90;;;;;;5134645;27;20395;-77
2023/09/15 03:38:55;;;;;;;4.00;2.35;;;9.50;99.90;;;;;;5149124;27;20070;-77
2023/09/15 03:41:24;;;;;;;3.40;2.30;;;9.40;99.90;;;;;;5155383;27;20158;-78
2023/09/15 03:43:49;;;;;;;4.20;2.72;;;9.40;99.90;;;;;;5155203;27;20053;-77
2023/09/15 03:46:16;;;;;;;3.67;2.40;;;9.40;99.90;;;;;;5136499;27;20125;-77
2023/09/15 03:48:41;;;;;;;3.28;1.90;;;9.30;99.90;;;;;;5154644;27;20414;-77
2023/09/15 03:51:08;;;;;;;3.90;2.53;;;9.30;99.90;;;;;;5154803;27;20052;-78
2023/09/15 03:53:33;;;;;;;4.47;2.30;;;9.30;99.90;;;;;;5154679;27;20046;-77
2023/09/15 03:55:59;;;;;;;5.07;2.60;;;9.30;99.90;;;;;;5154866;27;20383;-75
2023/09/15 03:58:25;;;;;;;2.42;1.75;;;9.30;99.90;;;;;;5154148;27;20050;-76
2023/09/15 04:00:51;;;;;;;3.78;2.30;;;9.30;99.90;;;;;;5136584;27;20038;-77
2023/09/15 04:03:17;;;;;;;3.42;2.35;;;9.30;99.90;;;;;;5155089;27;20046;-78
2023/09/15 04:05:43;;;;;;;2.60;1.70;;;9.30;99.90;;;;;;5154864;27;20049;-77
2023/09/15 04:08:08;;;;;;;4.45;2.28;;;9.20;99.90;;;;;;5155017;27;20039;-77
2023/09/15 04:10:35;;;;;;;4.38;2.70;;;9.20;99.90;;;;;;5154885;27;20049;-77
2023/09/15 04:13:00;;;;;;;4.25;2.20;;;9.20;99.90;;;;;;5154791;27;20050;-76
2023/09/15 04:15:26;;;;;;;5.57;2.50;;;9.20;99.90;;;;;;5136277;27;20525;-77
2023/09/15 04:17:52;;;;;;;4.75;2.40;;;9.20;99.90;;;;;;5155090;27;20062;-77
2023/09/15 04:20:18;;;;;;;3.60;2.60;;;9.20;99.90;;;;;;5154967;27;20042;-77
2023/09/15 04:22:43;;;;;;;4.55;2.55;;;9.20;99.90;;;;;;5154427;27;20126;-77
2023/09/15 04:25:13;;;;;;;4.70;2.90;;;9.20;99.90;;;;;;5153917;27;20039;-77
2023/09/15 04:27:39;;;;;;;3.83;2.60;;;9.30;99.90;;;;;;5154411;27;20042;-78
2023/09/15 04:30:05;;;;;;;4.28;2.50;;;9.30;99.90;;;;;;5130408;28;20055;-77
2023/09/15 04:32:31;;;;;;;4.93;2.85;;;9.40;99.90;;;;;;5134191;28;20395;-78
2023/09/15 04:34:56;;;;;;;5.75;2.35;;;9.40;99.90;;;;;;5115821;28;20047;-77
2023/09/15 04:37:22;;;;;;;3.38;2.08;;;9.40;99.90;;;;;;5134952;27;20047;-77
2023/09/15 04:39:53;;;;;;;2.97;1.80;;;9.40;99.90;;;;;;5136590;27;20075;-76
2023/09/15 04:42:20;;;;;;;3.80;1.90;;;9.30;99.90;;;;;;5136627;27;20051;-77
2023/09/15 04:44:46;;;;;;;2.90;1.90;;;9.20;99.90;;;;;;5154605;27;20047;-77
2023/09/15 04:47:36;;;;;;;3.33;2.30;;;9.20;99.90;;;;;;5154399;27;20050;-77
2023/09/15 04:50:02;;;;;;;3.25;1.67;;;9.20;99.90;;;;;;5154797;27;20043;-77
2023/09/15 04:52:28;;;;;;;3.22;2.63;;;9.10;99.90;;;;;;5154517;27;20046;-77
2023/09/15 04:54:55;;;;;;;2.60;1.60;;;9.10;99.90;;;;;;5154616;27;20083;-77
2023/09/15 04:57:22;;;;;;;3.30;1.65;;;9.10;99.90;;;;;;5136861;27;20043;-78
2023/09/15 04:59:48;;;;;;;3.47;1.60;;;9.10;99.90;;;;;;5136071;27;20126;-77
2023/09/15 05:02:14;;;;;;;2.53;1.00;;;9.00;99.90;;;;;;5155326;27;20482;-77
2023/09/15 05:04:40;;;;;;;2.42;1.10;;;8.90;99.90;;;;;;5155641;27;20045;-77
2023/09/15 05:07:06;;;;;;;1.70;1.15;;;8.80;99.90;;;;;;5156381;27;20042;-77
2023/09/15 05:09:32;;;;;;;2.47;1.10;;;8.80;99.90;;;;;;5138337;27;20043;-77
2023/09/15 05:11:58;;;;;;;2.40;1.15;;;8.70;99.90;;;;;;5158153;27;20041;-78
2023/09/15 05:14:24;;;;;;;1.70;1.00;;;8.70;99.90;;;;;;5158202;27;20436;-77
2023/09/15 05:16:49;;;;;;;3.45;1.20;;;8.60;99.90;;;;;;5158200;27;20054;-78
2023/09/15 05:19:15;;;;;;;1.77;1.10;;;8.60;99.90;;;;;;5158194;27;20099;-78
2023/09/15 05:21:41;;;;;;;3.05;1.40;;;8.60;99.90;;;;;;5158087;27;20422;-78
2023/09/15 05:24:07;;;;;;;2.50;1.40;;;8.60;99.90;;;;;;5157383;27;20042;-77
2023/09/15 05:26:34;;;;;;;2.75;1.77;;;8.60;99.90;;;;;;5157727;27;20134;-77
2023/09/15 05:29:02;;;;;;;2.45;1.27;;;8.60;99.90;;;;;;5157991;27;20042;-77
2023/09/15 05:31:28;;;;;;;3.60;1.70;;;8.60;99.90;;;;;;5139971;27;20481;-77
2023/09/15 05:33:55;;;;;;;2.40;1.67;;;8.60;99.90;;;;;;5101791;27;20138;-77
2023/09/15 05:36:21;;;;;;;2.15;1.38;;;8.70;99.90;;;;;;5137042;27;20437;-76
2023/09/15 05:38:48;;;;;;;3.35;1.45;;;8.70;99.90;;;;;;5150233;27;20055;-76
2023/09/15 05:41:14;;;;;;;2.15;1.40;;;8.80;99.90;;;;;;5157521;27;20051;-77
2023/09/15 05:43:40;;;;;;;1.92;1.30;;;8.80;99.90;;;;;;5138804;27;20050;-76
2023/09/15 05:46:06;;;;;;;2.15;1.30;;;8.80;99.90;;;;;;5157479;27;20065;-78
2023/09/15 05:48:32;;;;;;;2.60;1.70;;;8.90;99.90;;;;;;5157701;27;20093;-77
2023/09/15 05:50:57;;;;;;;2.80;1.40;;;9.00;99.90;;;;;;5139303;27;20045;-77
2023/09/15 05:53:23;;;;;;;2.45;1.55;;;9.10;99.90;;;;;;5157155;27;20460;-76
2023/09/15 05:55:49;;;;;;;2.22;1.33;;;9.10;99.90;;;;;;5157330;27;20069;-77
2023/09/15 05:58:14;;;;;;;3.10;1.65;;;9.20;99.90;;;;;;5139146;27;20089;-77
2023/09/15 06:00:43;;;;;;;2.40;1.67;;;9.30;99.90;;;;;;5139004;27;20099;-77
2023/09/15 06:03:09;;;;;;;2.30;1.40;;;9.30;99.90;;;;;;5157124;27;20471;-77
2023/09/15 06:05:35;;;;;;;3.20;2.13;;;9.40;99.90;;;;;;5157229;27;20046;-77
2023/09/15 06:08:03;;;;;;;3.88;2.20;;;9.50;99.90;;;;;;5157092;27;20380;-76
2023/09/15 06:10:29;;;;;;;4.22;2.55;;;9.60;99.90;;;;;;5138618;27;20042;-76
2023/09/15 06:12:54;;;;;;;4.97;2.75;;;9.70;99.90;;;;;;5156542;27;20380;-76
2023/09/15 06:15:21;;;;;;;4.78;2.95;;;9.80;99.90;;;;;;5138293;27;20050;-77
2023/09/15 06:17:48;;;;;;;4.50;2.80;;;9.90;99.90;;;;;;5156287;27;20422;-76
2023/09/15 06:20:14;;;;;;;7.18;3.40;;;10.00;99.90;;;;;;5155601;27;20042;-77
2023/09/15 06:22:39;;;;;;;5.35;3.17;;;10.10;99.90;;;;;;5156378;27;20550;-78
2023/09/15 06:25:06;;;;;;;3.65;3.00;;;10.20;99.90;;;;;;5156276;27;20091;-77
2023/09/15 06:27:33;;;;;;;6.25;3.08;;;10.40;99.90;;;;;;5156974;27;20138;-77
2023/09/15 06:29:59;;;;;;;5.13;3.45;;;10.50;99.90;;;;;;5151107;27;20604;-65
2023/09/15 06:32:25;;;;;;;4.70;3.30;;;10.50;99.90;;;;;;5135994;27;20039;-65
2023/09/15 06:34:50;;;;;;;5.82;3.83;;;10.60;99.90;;;;;;5135896;27;20039;-65
2023/09/15 06:37:16;;;;;;;6.47;3.95;;;10.70;99.90;;;;;;5136503;27;20049;-65
2023/09/15 06:39:42;;;;;;;5.15;3.55;;;10.80;99.90;;;;;;5156518;27;20047;-65
2023/09/15 06:42:11;;;;;;;5.47;3.17;;;11.00;99.90;;;;;;5156683;27;20046;-67
2023/09/15 06:44:37;;;;;;;5.28;3.38;;;11.00;99.90;;;;;;5156264;27;20042;-66
2023/09/15 06:47:03;;;;;;;5.45;3.65;;;11.10;99.90;;;;;;5156019;27;20050;-66
2023/09/15 06:49:31;;;;;;;5.75;3.80;;;11.30;99.90;;;;;;5156283;27;20047;-65
2023/09/15 06:51:57;;;;;;;5.32;3.38;;;11.40;99.90;;;;;;5156386;27;20055;-66
2023/09/15 06:54:23;;;;;;;6.18;3.80;;;11.50;99.90;;;;;;5155896;27;20117;-66
2023/09/15 06:56:50;;;;;;;5.53;3.90;;;11.60;99.90;;;;;;5155926;27;20089;-66
2023/09/15 06:59:16;;;;;;;6.72;3.75;;;11.60;99.90;;;;;;5155544;27;20051;-66
2023/09/15 07:01:41;;;;;;;6.20;3.70;;;11.70;99.90;;;;;;5137374;27;20066;-66
2023/09/15 07:04:07;;;;;;;7.03;4.20;;;11.80;99.90;;;;;;5156252;27;20078;-65
2023/09/15 07:06:33;;;;;;;5.22;3.70;;;11.90;99.90;;;;;;5137820;27;20046;-66
2023/09/15 07:08:59;;;;;;;9.60;4.38;;;12.00;99.90;;;;;;5137555;27;20061;-66
2023/09/15 07:11:25;;;;;;;5.60;3.30;;;12.10;99.90;;;;;;5155943;27;20046;-66
2023/09/15 07:13:50;;;;;;;5.22;3.88;;;12.20;99.90;;;;;;5156332;27;20490;-66
2023/09/15 07:16:16;;;;;;;4.30;3.53;;;12.30;99.90;;;;;;5155326;27;20047;-66
2023/09/15 07:18:42;;;;;;;7.43;4.35;;;12.30;99.90;;;;;;5155958;27;20046;-66
2023/09/15 07:21:08;;;;;;;7.38;4.90;;;12.50;99.90;;;;;;5155226;27;20398;-66
2023/09/15 07:23:34;;;;;;;5.28;3.88;;;12.60;99.90;;;;;;5155253;27;20399;-66
2023/09/15 07:25:59;;;;;;;7.22;4.00;;;12.70;99.90;;;;;;5155630;27;20053;-66
2023/09/15 07:28:25;;;;;;;5.35;3.80;;;12.70;99.90;;;;;;5155833;27;20061;-66
2023/09/15 07:30:51;;;;;;;7.68;4.05;;;12.80;99.90;;;;;;5142807;27;20131;-66
2023/09/15 07:33:16;;;;;;;4.65;3.67;;;12.90;99.90;;;;;;5134358;27;20051;-66
2023/09/15 07:35:42;;;;;;;5.28;3.78;;;13.00;99.90;;;;;;5134350;27;20039;-66
2023/09/15 07:38:08;;;;;;;6.45;4.13;;;13.10;99.90;;;;;;5141584;27;20047;-66
2023/09/15 07:40:34;;;;;;;6.65;3.85;;;13.20;99.90;;;;;;5155153;27;20491;-66
2023/09/15 07:42:59;;;;;;;5.72;3.55;;;13.30;99.90;;;;;;5155161;27;20085;-66
2023/09/15 07:45:26;;;;;;;5.88;3.63;;;13.50;99.90;;;;;;5136254;27;20078;-66
2023/09/15 07:47:51;;;;;;;6.15;3.70;;;13.50;99.90;;;;;;5147343;27;20039;-66
2023/09/15 07:50:17;;;;;;;7.40;3.65;;;13.60;99.90;;;;;;5153981;27;20095;-66
2023/09/15 07:52:46;;;;;;;5.10;3.78;;;13.80;99.90;;;;;;5148641;27;20046;-66
2023/09/15 07:55:12;;;;;;;8.02;3.78;;;13.90;99.90;;;;;;5150612;27;20041;-65
2023/09/15 07:57:39;;;;;;;5.78;4.05;;;14.00;99.90;;;;;;5146349;27;20448;-65
2023/09/15 08:00:06;;;;;;;4.80;3.70;;;14.10;99.90;;;;;;5141759;27;20130;-65
2023/09/15 08:02:32;;;;;;;5.95;3.65;;;14.20;99.90;;;;;;5134003;27;20054;-65
2023/09/15 08:04:58;;;;;;;4.55;3.50;;;14.30;99.90;;;;;;5143810;27;20039;-66
2023/09/15 08:07:23;;;;;;;5.70;3.50;;;14.40;99.90;;;;;;5136034;27;20035;-66
2023/09/15 08:09:49;;;;;;;7.28;3.70;;;14.60;99.90;;;;;;5142327;27;20118;-66
2023/09/15 08:12:18;;;;;;;5.47;3.58;;;14.70;99.90;;;;;;5134954;27;20103;-66
2023/09/15 08:14:44;;;;;;;7.13;3.85;;;14.80;99.90;;;;;;5125720;27;20046;-66
2023/09/15 08:17:10;;;;;;;5.82;3.83;;;14.90;99.90;;;;;;5134421;27;20055;-66
2023/09/15 08:19:36;;;;;;;7.47;3.20;;;15.10;99.90;;;;;;5154105;27;20045;-66
2023/09/15 08:22:01;;;;;;;4.72;3.40;;;15.20;99.90;;;;;;5154666;27;20050;-66
2023/09/15 08:24:27;;;;;;;5.68;3.25;;;15.40;99.90;;;;;;5146663;27;20122;-66
2023/09/15 08:26:53;;;;;;;5.22;3.08;;;15.50;99.90;;;;;;5133443;28;20047;-63
2023/09/15 08:29:19;;;;;;;5.72;3.10;;;15.60;99.90;;;;;;5134099;27;20054;-64
2023/09/15 08:31:44;;;;;;;5.13;3.00;;;15.70;99.90;;;;;;5134892;27;20394;-65
2023/09/15 08:34:11;;;;;;;5.90;3.17;;;15.80;99.90;;;;;;5154572;27;20043;-65
2023/09/15 08:36:38;;;;;;;5.57;3.35;;;16.00;99.90;;;;;;5154347;27;20050;-65
2023/09/15 08:39:04;;;;;;;6.00;3.40;;;16.10;99.90;;;;;;5153258;27;20042;-66
2023/09/15 08:41:39;;;;;;;5.22;3.22;;;16.20;99.90;;;;;;5154015;27;20041;-64
2023/09/15 08:44:07;;;;;;;7.25;3.10;;;16.40;99.90;;;;;;5151762;27;20563;-65
2023/09/15 08:46:34;;;;;;;5.30;3.00;;;16.50;99.90;;;;;;5137194;27;20043;-65
2023/09/15 08:49:01;;;;;;;5.30;3.20;;;16.60;99.90;;;;;;5137346;27;20396;-65
2023/09/15 08:51:28;;;;;;;4.43;2.55;;;16.70;99.90;;;;;;5137235;27;20104;-64
2023/09/15 08:53:57;;;;;;;3.85;2.80;;;16.80;99.90;;;;;;5128522;27;20476;-64
2023/09/15 08:56:23;;;;;;;5.95;3.30;;;16.90;99.90;;;;;;5144419;27;20038;-65
2023/09/15 08:58:50;;;;;;;5.00;2.90;;;17.00;99.90;;;;;;5150445;27;20569;-65
2023/09/15 09:01:18;;;;;;;4.25;2.47;;;17.10;99.90;;;;;;5153887;27;20448;-65
2023/09/15 09:03:44;;;;;;;6.00;2.75;;;17.30;99.90;;;;;;5148398;27;20466;-65
2023/09/15 09:06:12;;;;;;;6.20;2.60;;;17.40;99.90;;;;;;5156102;27;20103;-65
2023/09/15 09:08:41;;;;;;;3.85;2.25;;;17.50;99.90;;;;;;5156686;27;20042;-65
2023/09/15 09:11:08;;;;;;;4.85;2.38;;;17.70;99.90;;;;;;5148568;27;20102;-65
2023/09/15 09:13:34;;;;;;;4.32;2.08;;;17.80;99.90;;;;;;5138258;27;20051;-65
2023/09/15 09:16:02;;;;;;;5.70;2.00;;;17.80;99.90;;;;;;5149699;27;20238;-65
2023/09/15 09:18:28;;;;;;;4.22;2.25;;;17.90;99.90;;;;;;5156334;27;20054;-65
2023/09/15 09:20:54;;;;;;;4.88;2.30;;;18.10;99.90;;;;;;5156274;27;20399;-65
2023/09/15 09:23:20;;;;;;;3.80;2.42;;;18.20;99.90;;;;;;5156822;27;20081;-65
2023/09/15 09:25:46;;;;;;;3.40;1.92;;;18.30;99.90;;;;;;5150932;27;20077;-66
2023/09/15 09:28:13;;;;;;;3.83;2.00;;;18.30;99.90;;;;;;5125859;27;20111;-66
2023/09/15 09:30:39;;;;;;;4.53;2.10;;;18.40;99.90;;;;;;5142912;27;20099;-65
2023/09/15 09:33:07;;;;;;;3.83;2.22;;;18.60;99.90;;;;;;5145547;27;20047;-65
2023/09/15 09:35:33;;;;;;;3.92;2.20;;;18.70;99.90;;;;;;5142195;27;20051;-64
2023/09/15 09:38:00;;;;;;;4.55;2.15;;;18.80;99.90;;;;;;5141164;27;20095;-66
2023/09/15 09:40:26;;;;;;;5.07;2.45;;;18.90;99.90;;;;;;5147795;27;20499;-66
2023/09/15 09:42:55;;;;;;;3.45;1.90;;;19.10;99.90;;;;;;5148868;27;20078;-63
2023/09/15 09:45:33;;;;;;;4.15;2.17;;;19.20;99.90;;;;;;5156022;27;20042;-64
2023/09/15 09:48:02;;;;;;;4.65;2.20;;;19.30;99.90;;;;;;5152601;27;20093;-64
2023/09/15 09:50:28;;;;;;;6.10;2.35;;;19.40;99.90;;;;;;5156154;27;20034;-64
2023/09/15 09:52:55;;;;;;;4.18;2.50;;;19.50;99.90;;;;;;5150929;27;20054;-64
2023/09/15 09:55:21;;;;;;;2.90;1.65;;;19.60;99.90;;;;;;5149310;27;20038;-63
2023/09/15 09:57:47;;;;;;;4.30;1.80;;;19.80;99.90;;;;;;5156030;27;20047;-65
2023/09/15 10:00:19;;;;;;;4.47;1.90;;;19.90;99.90;;;;;;5136745;27;20103;-65
2023/09/15 10:02:45;;;;;;;4.80;2.22;;;20.00;99.90;;;;;;5143226;27;20482;-65
2023/09/15 10:05:11;;;;;;;4.50;2.17;;;20.00;99.90;;;;;;5156486;27;20053;-65
2023/09/15 10:07:37;;;;;;;3.75;1.92;;;20.10;99.90;;;;;;5156029;27;20042;-64
2023/09/15 10:10:07;;;;;;;3.55;1.60;;;20.20;99.90;;;;;;5152865;27;20066;-65
2023/09/15 10:12:34;;;;;;;5.20;1.75;;;20.30;99.90;;;;;;5154654;27;20144;-65
2023/09/15 10:15:02;;;;;;;5.80;1.80;;;20.30;99.90;;;;;;5152162;27;20080;-64
2023/09/15 10:17:28;;;;;;;4.00;1.73;;;20.50;99.90;;;;;;5155805;27;20051;-65
2023/09/15 10:19:55;;;;;;;3.33;1.80;;;20.70;99.90;;;;;;5148292;27;20039;-64
2023/09/15 10:22:22;;;;;;;4.32;1.70;;;20.90;99.90;;;;;;5130849;27;20117;-65
2023/09/15 10:24:58;;;;;;;3.55;1.80;;;21.10;99.90;;;;;;5140616;27;20394;-65
2023/09/15 10:27:25;;;;;;;3.83;1.40;;;21.20;99.90;;;;;;5149631;27;20130;-65
2023/09/15 10:29:51;;;;;;;4.15;1.42;;;21.40;99.90;;;;;;5151977;27;20049;-65
2023/09/15 10:32:18;;;;;;;4.00;1.60;;;21.50;99.90;;;;;;5148141;27;20495;-65
2023/09/15 10:34:48;;;;;;;3.55;1.60;;;21.60;99.90;;;;;;5148960;27;20075;-65
2023/09/15 10:37:14;;;;;;;4.75;1.65;;;21.70;99.90;;;;;;5150543;27;20444;-65
2023/09/15 10:39:41;;;;;;;2.67;1.27;;;21.80;99.90;;;;;;5148691;27;20038;-64
2023/09/15 10:42:14;;;;;;;4.78;1.58;;;21.80;99.90;;;;;;5146516;27;20063;-65
2023/09/15 10:44:44;;;;;;;4.38;1.58;;;21.90;99.90;;;;;;5145040;27;20495;-65
2023/09/15 10:47:20;;;;;;;5.25;1.65;;;22.00;99.90;;;;;;5154272;27;20050;-64
2023/09/15 10:49:51;;;;;;;4.03;1.63;;;22.20;99.90;;;;;;5153970;27;20082;-65
2023/09/15 10:52:17;;;;;;;3.25;1.52;;;22.20;99.90;;;;;;5154090;27;20051;-65
2023/09/15 10:54:42;;;;;;;4.38;1.67;;;22.30;99.90;;;;;;5153006;27;20042;-65
2023/09/15 10:57:09;;;;;;;2.78;1.52;;;22.30;99.90;;;;;;5133966;27;20445;-66
2023/09/15 10:59:36;;;;;;;3.95;1.60;;;22.30;99.90;;;;;;5133390;27;20046;-65
2023/09/15 11:02:02;;;;;;;3.13;1.67;;;22.30;99.90;;;;;;5136826;27;20055;-64
2023/09/15 11:04:29;;;;;;;4.30;1.77;;;22.30;99.90;;;;;;5145908;27;20042;-64
2023/09/15 11:06:55;;;;;;;3.65;1.83;;;22.20;99.90;;;;;;5143543;27;20043;-64
2023/09/15 11:09:25;;;;;;;3.28;1.73;;;22.10;99.90;;;;;;5153911;27;20479;-64
2023/09/15 11:11:52;;;;;;;3.75;1.90;;;22.00;99.90;;;;;;5153927;27;20082;-64
2023/09/15 11:14:22;;;;;;;6.03;1.67;;;21.80;99.90;;;;;;5153930;27;20051;-65
2023/09/15 11:16:56;;;;;;;3.13;1.52;;;21.80;99.90;;;;;;5135780;27;20066;-64
2023/09/15 11:19:30;;;;;;;6.03;1.67;;;21.60;99.90;;;;;;5133359;27;20047;-65
2023/09/15 11:21:56;;;;;;;4.88;1.60;;;21.60;99.90;;;;;;5132980;27;20096;-65
2023/09/15 11:24:22;;;;;;;4.45;1.52;;;21.50;99.90;;;;;;5132445;27;20094;-64
2023/09/15 11:26:52;;;;;;;4.03;1.90;;;21.50;99.90;;;;;;5132986;27;20103;-65
2023/09/15 11:29:44;;;;;;;3.20;1.85;;;21.40;99.90;;;;;;5133076;27;20054;-64
2023/09/15 11:32:09;;;;;;;4.15;1.70;;;21.40;99.90;;;;;;5110378;27;20059;-64
2023/09/15 11:34:35;;;;;;;3.55;1.63;;;21.40;99.90;;;;;;5133123;27;20055;-64
2023/09/15 11:37:01;;;;;;;3.38;1.50;;;21.40;99.90;;;;;;5114551;27;20399;-64
2023/09/15 11:39:30;;;;;;;3.47;1.48;;;21.30;99.90;;;;;;5130176;27;20484;-64
2023/09/15 11:41:57;;;;;;;4.18;1.58;;;21.30;99.90;;;;;;5149797;27;20054;-64
2023/09/15 11:44:24;;;;;;;3.70;1.48;;;21.20;99.90;;;;;;5153070;27;20066;-65
2023/09/15 11:46:51;;;;;;;4.22;1.85;;;21.30;99.90;;;;;;5136867;27;20050;-65
2023/09/15 11:49:18;;;;;;;4.53;1.50;;;21.30;99.90;;;;;;5133027;27;20195;-65
2023/09/15 11:51:47;;;;;;;3.92;1.70;;;21.20;99.90;;;;;;5132419;27;20131;-64
2023/09/15 11:54:13;;;;;;;5.90;1.52;;;21.20;99.90;;;;;;5140883;27;20047;-65
2023/09/15 11:56:39;;;;;;;6.30;2.03;;;21.20;99.90;;;;;;5120234;27;20043;-65
2023/09/15 11:59:06;;;;;;;5.43;1.88;;;21.20;99.90;;;;;;5132369;27;20043;-65
2023/09/15 12:01:32;;;;;;;3.78;1.90;;;21.20;99.90;;;;;;5143719;27;20042;-65
2023/09/15 12:03:58;;;;;;;4.22;2.15;;;21.20;99.90;;;;;;5128021;27;20395;-65
2023/09/15 12:06:25;;;;;;;4.35;1.70;;;21.20;99.90;;;;;;5144757;27;20030;-65
2023/09/15 12:08:52;;;;;;;4.57;1.85;;;21.20;99.90;;;;;;5113909;28;20050;-65
2023/09/15 12:11:19;;;;;;;3.40;1.75;;;21.10;99.90;;;;;;5142794;27;20413;-66
2023/09/15 12:13:52;;;;;;;3.65;2.10;;;21.00;99.90;;;;;;5152813;27;20375;-66
2023/09/15 12:16:28;;;;;;;3.42;1.98;;;20.90;99.90;;;;;;5152989;27;20057;-66
2023/09/15 12:18:55;;;;;;;5.38;1.90;;;20.80;99.90;;;;;;5151962;27;20406;-65
2023/09/15 12:21:25;;;;;;;4.00;1.80;;;20.80;99.90;;;;;;5146462;27;20078;-65
2023/09/15 12:23:54;;;;;;;3.33;1.58;;;20.90;99.90;;;;;;5156681;27;20089;-65
2023/09/15 12:26:24;;;;;;;4.25;1.60;;;21.00;99.90;;;;;;5156888;27;20099;-64
2023/09/15 12:28:53;;;;;;;4.88;2.10;;;21.10;99.90;;;;;;5156657;27;20562;-64
2023/09/15 12:31:20;;;;;;;3.67;2.33;;;21.20;99.90;;;;;;5140525;27;20103;-64
2023/09/15 12:33:53;;;;;;;3.30;2.28;;;21.20;99.90;;;;;;5136717;27;20103;-65
2023/09/15 12:36:22;;;;;;;5.20;1.98;;;21.20;99.90;;;;;;5117458;27;20039;-65
2023/09/15 12:38:50;;;;;;;3.60;2.10;;;21.10;99.90;;;;;;5148710;27;20058;-65
2023/09/15 12:41:16;;;;;;;3.40;2.25;;;21.10;99.90;;;;;;5147598;27;20081;-66
2023/09/15 12:43:43;;;;;;;5.03;2.35;;;21.00;99.90;;;;;;5117592;27;20082;-66
2023/09/15 12:46:09;;;;;;;4.82;2.45;;;21.00;99.90;;;;;;5142040;27;20070;-65
2023/09/15 12:48:34;;;;;;;6.03;3.03;;;21.10;99.90;;;;;;5121768;27;20092;-67
2023/09/15 12:51:00;;;;;;;4.30;2.40;;;21.20;99.90;;;;;;5140729;27;20047;-65